Strona główna
METAR-TAF:

METAR-TAF

Lotnisko :

Port lotniczy Ko Samui

Ko Samui, Tajlandia

Szerokość geograficzna: 09-32-52N, Długość geograficzna: 100-03-44E, wysokość: 20 m

Aktualna obserwacja pogody

Raport powstał 38 minut temu, godzina 11:30 UTC
Wiatr 5 kt od wschodnio-południowy wschód
Temperatura 30°C
Wilgotność 70%
Ciśnienie 1008 hPa
Widzialność 10 km lub więcej
Mało chmury na wysokości 2000 ft

METAR: VTSM 281130Z 12005KT 9999 FEW020 30/24 Q1008 NOSIG

czas: 19:08 (12:08 UTC)

Prognoza

Raport powstał 1 godzina i 8 minut temu, godzina 11:00 UTC
Prognoza ważna od 28 godzina 12 UTC do 29 godzina 12 UTC
Wiatr 5 kt od wschód
Widzialność 10 km lub więcej
Mało chmury na wysokości 2000 ft

TAF: VTSM 281100Z 2812/2912 10005KT 9999 FEW020

Obserwacja i prognoza pogody dla ponad 4000 lotnisk (raport METAR i TAF).

Dostępne stacje oznaczono żółtymi i czerwonymi punktami na mapie.

Najedź kursorem aby zobaczyć nazwę stacji.

Kliknij aby zobaczyć obserwacje i prognozy pogody.

Aby zmienić mapę: kliknij na zielony przycisk z czarnym krzyżykiem, aby powiększyć; na zielony przycisk z myślnikiem, aby pomniejszyć; na zielone strzałki, aby przejść do map sąsiednich.


METAR-TAF: